Aviation Digital Data Service (ADDS)

Output produced by METARs form (0327 UTC 26 May 2015)
found at http://aviationweather.gov/adds/metars/
 
KPHF 252337Z 2600/2624 19006KT P6SM SKC 
     FM261500 21010G15KT P6SM SCT050 SCT250 
     FM262100 20010KT P6SM BKN150